Nearby METAR Reports

 

KAGC - Pittsburgh/Alleg, Pennsylvania, USA
Distance from station: SW 8mi, 12km
Updated: Wed, 26-Jan-2022 5:53pm EST
Few Clouds
Few Clouds
 Wind from SW
Wind: SW 3 mph , 6 km/h
Temperature: 14°F , -10°C
Dew Point: 1°F , -17°C
Humidity: 57%
Barometer: 30.37 inHg , 1028.4 hPa
Clouds: Few Clouds
Visibility: 10 miles , 16 km
Cloud details: Few Clouds 2300 ft
2022/01/26 22:53 KAGC 262253Z 22003KT 10SM FEW023 M10/M17 A3037 RMK AO2 SLP314 T11001172
KLBE - Latrobe/Westmorl, Pennsylvania, USA
Distance from station: ESE 24mi, 38km
Updated: Wed, 26-Jan-2022 5:47pm EST
Few Clouds
Few Clouds
 Wind from WNW
Wind: WNW 5 mph , 7 km/h
Temperature: 14°F , -10°C
Wind Chill: 6°F , -14°C
Dew Point: -0°F , -18°C
Humidity: 52%
Barometer: 30.40 inHg , 1029.5 hPa
Clouds: Few Clouds
Visibility: 15 miles , 24 km
Cloud details: Few Clouds 3500 ft
2022/01/26 22:47 KLBE 262247Z 29004KT 15SM FEW035 M10/M18 A3040
 
KPIT - Pittsburgh, Pennsylvania, USA
Distance from station: WNW 25mi, 40km
Updated: Wed, 26-Jan-2022 5:51pm EST
Few Clouds
Few Clouds
 Wind from calm
Wind: Calm
Temperature: 12°F , -11°C
Dew Point: -0°F , -18°C
Humidity: 57%
Barometer: 30.38 inHg , 1028.8 hPa
Clouds: Few Clouds
Visibility: 10 miles , 16 km
Cloud details: Few Clouds 4000 ft
2022/01/26 22:51 KPIT 262251Z 00000KT 10SM FEW040 M11/M18 A3038 RMK AO2 SLP319 T11111183
KBTP - Butler Co., Pennsylvania, USA
Distance from station: NNW 25mi, 41km
Updated: Wed, 26-Jan-2022 5:56pm EST
Clear
Clear
 Wind from calm
Wind: Calm
Temperature: 9°F , -13°C
Dew Point: -2°F , -19°C
Humidity: 61%
Barometer: 30.39 inHg , 1029.1 hPa
Clouds: Clear
Visibility: 10 miles , 16 km
2022/01/26 22:56 KBTP 262256Z AUTO 00000KT 10SM CLR M13/M19 A3039 RMK AO2 SLP324 T11281189 FZRANO
 
KAFJ - Washington, Pennsylvania, USA
Distance from station: SW 32mi, 52km
Updated: Wed, 26-Jan-2022 5:56pm EST
Clear
Clear
 Wind from calm
Wind: Calm
Temperature: 10°F , -12°C
Dew Point: 1°F , -17°C
Humidity: 67%
Barometer: 30.42 inHg , 1030.1 hPa
Clouds: Clear
Visibility: 10 miles , 16 km
2022/01/26 22:56 KAFJ 262256Z AUTO 00000KT 10SM CLR M12/M17 A3042 RMK AO2 SLP324 T11171172 FZRANO
KBVI - Beaver Falls Arp, Pennsylvania, USA
Distance from station: NW 40mi, 64km
Updated: Wed, 26-Jan-2022 6:15pm EST
Clear
Clear
 Wind from calm
Wind: Calm
Temperature: 14°F , -10°C
Dew Point: -0°F , -18°C
Humidity: 52%
Barometer: 30.39 inHg , 1029.1 hPa
Clouds: Clear
Visibility: 10 miles , 16 km
2022/01/26 23:15 KBVI 262315Z AUTO 00000KT 10SM CLR M10/M18 A3039 RMK AO2 T11021177
 
KIDI - Indiana/Stewart, Pennsylvania, USA
Distance from station: ENE 40mi, 65km
Updated: Wed, 26-Jan-2022 6:15pm EST
Overcast
Overcast
 Wind from WNW
Wind: WNW 3 mph , 6 km/h
Temperature: 14°F , -10°C
Dew Point: 3°F , -16°C
Humidity: 62%
Barometer: 30.40 inHg , 1029.5 hPa
Clouds: Overcast
Visibility: 10 miles , 16 km
Cloud details: Few Clouds 2400 ft
Overcast 3300 ft
2022/01/26 23:15 KIDI 262315Z AUTO 29003KT 10SM FEW024 OVC033 M10/M16 A3040 RMK A01
KHLG - Wheeling, West Virginia, USA
Distance from station: WSW 48mi, 77km
Updated: Wed, 26-Jan-2022 5:53pm EST
Clear
Clear
 Wind from calm
Wind: Calm
Temperature: 16°F , -9°C
Dew Point: 1°F , -17°C
Humidity: 53%
Barometer: 30.38 inHg , 1028.8 hPa
Clouds: Clear
Visibility: 10 miles , 16 km
2022/01/26 22:53 KHLG 262253Z 00000KT 10SM CLR M09/M17 A3038 RMK AO2 SLP315 T10941167
 
K2G9 - Somerset, Pennsylvania, USA
Distance from station: ESE 49mi, 79km
Updated: Wed, 26-Jan-2022 6:15pm EST
Overcast
Overcast
 Wind from NNW
Wind: NNW 5 mph , 7 km/h
Temperature: 10°F , -12°C
Wind Chill: 1°F , -17°C
Dew Point: 1°F , -17°C
Humidity: 67%
Barometer: 30.29 inHg , 1025.7 hPa
Clouds: Overcast
Visibility: 10 miles , 16 km
Cloud details: Overcast 1600 ft
2022/01/26 23:15 K2G9 262315Z AUTO 33004KT 10SM OVC016 M12/M17 A3029 RMK AO2